sensor_id;sensor_type;location;lat;lon;timestamp;pressure;altitude;pressure_sealevel;temperature;humidity
14902;BME280;7542;49.078;9.194;2023-04-28T00:00:36;98424.56;;;29.46;28.47
14902;BME280;7542;49.078;9.194;2023-04-28T00:01:39;98424.88;;;29.44;28.69
14902;BME280;7542;49.078;9.194;2023-04-28T00:02:41;98422.47;;;29.43;28.31
14902;BME280;7542;49.078;9.194;2023-04-28T00:03:43;98419.22;;;29.41;28.30
14902;BME280;7542;49.078;9.194;2023-04-28T00:04:45;98415.47;;;29.42;28.33
14902;BME280;7542;49.078;9.194;2023-04-28T00:05:48;98417.31;;;29.41;28.40
14902;BME280;7542;49.078;9.194;2023-04-28T00:06:53;98415.47;;;29.42;28.21
14902;BME280;7542;49.078;9.194;2023-04-28T00:07:57;98409.22;;;29.41;28.66
14902;BME280;7542;49.078;9.194;2023-04-28T00:08:59;98411.44;;;29.39;28.44
14902;BME280;7542;49.078;9.194;2023-04-28T00:10:04;98407.63;;;29.40;28.60
14902;BME280;7542;49.078;9.194;2023-04-28T00:11:10;98411.94;;;29.41;28.27
14902;BME280;7542;49.078;9.194;2023-04-28T00:12:12;98410.13;;;29.37;28.71
14902;BME280;7542;49.078;9.194;2023-04-28T00:13:14;98402.03;;;29.37;28.24
14902;BME280;7542;49.078;9.194;2023-04-28T00:14:18;98408.22;;;29.37;28.45
14902;BME280;7542;49.078;9.194;2023-04-28T00:15:20;98402.03;;;29.37;28.41
14902;BME280;7542;49.078;9.194;2023-04-28T00:16:23;98406.31;;;29.38;28.68
14902;BME280;7542;49.078;9.194;2023-04-28T00:17:26;98406.63;;;29.36;28.67
14902;BME280;7542;49.078;9.194;2023-04-28T00:18:28;98403.94;;;29.36;28.33
14902;BME280;7542;49.078;9.194;2023-04-28T00:19:31;98403.13;;;29.36;28.52
14902;BME280;7542;49.078;9.194;2023-04-28T00:20:33;98405.03;;;29.35;28.53
14902;BME280;7542;49.078;9.194;2023-04-28T00:21:36;98406.13;;;29.34;28.39
14902;BME280;7542;49.078;9.194;2023-04-28T00:22:39;98402.63;;;29.34;28.76
14902;BME280;7542;49.078;9.194;2023-04-28T00:23:41;98411.53;;;29.34;28.60
14902;BME280;7542;49.078;9.194;2023-04-28T00:24:43;98409.63;;;29.35;28.42
14902;BME280;7542;49.078;9.194;2023-04-28T00:25:55;98407.44;;;29.37;28.38
14902;BME280;7542;49.078;9.194;2023-04-28T00:26:58;98409.63;;;29.35;28.32
14902;BME280;7542;49.078;9.194;2023-04-28T00:28:00;98402.13;;;29.32;28.37
14902;BME280;7542;49.078;9.194;2023-04-28T00:29:06;98403.22;;;29.31;28.49
14902;BME280;7542;49.078;9.194;2023-04-28T00:30:11;98397.81;;;29.31;28.41
14902;BME280;7542;49.078;9.194;2023-04-28T00:31:14;98404.28;;;29.30;28.67
14902;BME280;7542;49.078;9.194;2023-04-28T00:32:17;98396.00;;;29.26;28.82
14902;BME280;7542;49.078;9.194;2023-04-28T00:33:19;98395.69;;;29.28;28.87
14902;BME280;7542;49.078;9.194;2023-04-28T00:34:21;98395.69;;;29.28;28.34
14902;BME280;7542;49.078;9.194;2023-04-28T00:35:23;98393.28;;;29.26;28.18
14902;BME280;7542;49.078;9.194;2023-04-28T00:36:26;98388.19;;;29.25;28.80
14902;BME280;7542;49.078;9.194;2023-04-28T00:37:37;98383.59;;;29.25;28.88
14902;BME280;7542;49.078;9.194;2023-04-28T00:38:39;98380.09;;;29.25;28.67
14902;BME280;7542;49.078;9.194;2023-04-28T00:39:41;98397.41;;;29.24;28.73
14902;BME280;7542;49.078;9.194;2023-04-28T00:40:47;98392.28;;;29.22;28.14
14902;BME280;7542;49.078;9.194;2023-04-28T00:41:54;98393.41;;;29.21;28.57
14902;BME280;7542;49.078;9.194;2023-04-28T00:42:56;98389.91;;;29.21;28.75
14902;BME280;7542;49.078;9.194;2023-04-28T00:43:58;98395.28;;;29.21;28.40
14902;BME280;7542;49.078;9.194;2023-04-28T00:45:00;98391.78;;;29.20;28.87
14902;BME280;7542;49.078;9.194;2023-04-28T00:46:06;98392.88;;;29.19;28.35
14902;BME280;7542;49.078;9.194;2023-04-28T00:47:10;98394.75;;;29.19;28.46
14902;BME280;7542;49.078;9.194;2023-04-28T00:48:13;98382.06;;;29.19;28.39
14902;BME280;7542;49.078;9.194;2023-04-28T00:49:17;98386.16;;;29.16;28.46
14902;BME280;7542;49.078;9.194;2023-04-28T00:50:20;98379.16;;;29.15;28.63
14902;BME280;7542;49.078;9.194;2023-04-28T00:51:23;98381.88;;;29.15;28.92
14902;BME280;7542;49.078;9.194;2023-04-28T00:52:25;98379.97;;;29.16;28.56
14902;BME280;7542;49.078;9.194;2023-04-28T00:53:28;98381.38;;;29.13;28.45
14902;BME280;7542;49.078;9.194;2023-04-28T00:54:32;98380.25;;;29.14;28.69
14902;BME280;7542;49.078;9.194;2023-04-28T00:55:38;98381.38;;;29.13;28.80
14902;BME280;7542;49.078;9.194;2023-04-28T00:56:41;98378.97;;;29.12;28.44
14902;BME280;7542;49.078;9.194;2023-04-28T00:57:44;98388.16;;;29.11;28.41
14902;BME280;7542;49.078;9.194;2023-04-28T00:58:47;98382.75;;;29.11;28.56
14902;BME280;7542;49.078;9.194;2023-04-28T00:59:49;98380.63;;;29.08;28.39
14902;BME280;7542;49.078;9.194;2023-04-28T01:00:51;98389.25;;;29.10;28.47
14902;BME280;7542;49.078;9.194;2023-04-28T01:01:55;98386.84;;;29.08;28.73
14902;BME280;7542;49.078;9.194;2023-04-28T01:02:58;98384.13;;;29.08;28.73
14902;BME280;7542;49.078;9.194;2023-04-28T01:04:00;98382.53;;;29.07;28.44
14902;BME280;7542;49.078;9.194;2023-04-28T01:05:04;98382.22;;;29.09;28.61
14902;BME280;7542;49.078;9.194;2023-04-28T01:06:08;98382.53;;;29.07;28.72
14902;BME280;7542;49.078;9.194;2023-04-28T01:07:11;98382.03;;;29.05;28.65
14902;BME280;7542;49.078;9.194;2023-04-28T01:08:13;98378.22;;;29.06;28.38
14902;BME280;7542;49.078;9.194;2023-04-28T01:09:15;98372.94;;;29.01;28.61
14902;BME280;7542;49.078;9.194;2023-04-28T01:10:17;98373.44;;;29.03;28.48
14902;BME280;7542;49.078;9.194;2023-04-28T01:11:21;98373.72;;;29.02;28.66
14902;BME280;7542;49.078;9.194;2023-04-28T01:12:24;98379.94;;;29.02;28.58
14902;BME280;7542;49.078;9.194;2023-04-28T01:13:25;98373.72;;;29.02;28.79
14902;BME280;7542;49.078;9.194;2023-04-28T01:14:29;98371.34;;;29.00;28.42
14902;BME280;7542;49.078;9.194;2023-04-28T01:15:31;98370.84;;;28.98;28.62
14902;BME280;7542;49.078;9.194;2023-04-28T01:16:34;98364.34;;;28.99;28.88
14902;BME280;7542;49.078;9.194;2023-04-28T01:17:36;98360.53;;;29.00;28.50
14902;BME280;7542;49.078;9.194;2023-04-28T01:18:47;98359.94;;;29.03;28.81
14902;BME280;7542;49.078;9.194;2023-04-28T01:19:49;98356.22;;;28.99;28.65
14902;BME280;7542;49.078;9.194;2023-04-28T01:20:51;98366.22;;;28.99;29.05
14902;BME280;7542;49.078;9.194;2023-04-28T01:21:53;98359.50;;;28.96;28.79
14902;BME280;7542;49.078;9.194;2023-04-28T01:22:55;98358.69;;;28.96;28.59
14902;BME280;7542;49.078;9.194;2023-04-28T01:23:58;98360.59;;;28.95;28.83
14902;BME280;7542;49.078;9.194;2023-04-28T01:25:01;98364.09;;;28.96;28.86
14902;BME280;7542;49.078;9.194;2023-04-28T01:26:04;98364.41;;;28.94;28.86
14902;BME280;7542;49.078;9.194;2023-04-28T01:27:08;98363.59;;;28.94;28.54
14902;BME280;7542;49.078;9.194;2023-04-28T01:28:11;98356.31;;;28.94;28.90
14902;BME280;7542;49.078;9.194;2023-04-28T01:29:13;98354.69;;;28.93;28.78
14902;BME280;7542;49.078;9.194;2023-04-28T01:30:15;98346.91;;;28.92;28.79
14902;BME280;7542;49.078;9.194;2023-04-28T01:31:17;98350.69;;;28.91;28.58
14902;BME280;7542;49.078;9.194;2023-04-28T01:32:19;98344.50;;;28.90;29.16
14902;BME280;7542;49.078;9.194;2023-04-28T01:33:21;98348.31;;;28.89;28.53
14902;BME280;7542;49.078;9.194;2023-04-28T01:34:23;98336.72;;;28.89;28.48
14902;BME280;7542;49.078;9.194;2023-04-28T01:35:27;98339.41;;;28.89;28.67
14902;BME280;7542;49.078;9.194;2023-04-28T01:36:29;98344.81;;;28.89;28.66
14902;BME280;7542;49.078;9.194;2023-04-28T01:37:31;98351.53;;;28.86;29.06
14902;BME280;7542;49.078;9.194;2023-04-28T01:38:37;98360.19;;;28.88;28.73
14902;BME280;7542;49.078;9.194;2023-04-28T01:39:39;98361.22;;;28.87;28.99
14902;BME280;7542;49.078;9.194;2023-04-28T01:40:42;98365.59;;;28.88;28.58
14902;BME280;7542;49.078;9.194;2023-04-28T01:41:44;98360.44;;;28.86;28.73
14902;BME280;7542;49.078;9.194;2023-04-28T01:42:45;98355.63;;;28.83;28.93
14902;BME280;7542;49.078;9.194;2023-04-28T01:43:47;98350.75;;;28.85;29.00
14902;BME280;7542;49.078;9.194;2023-04-28T01:44:50;98345.34;;;28.85;28.85
14902;BME280;7542;49.078;9.194;2023-04-28T01:45:52;98342.63;;;28.85;28.86
14902;BME280;7542;49.078;9.194;2023-04-28T01:46:54;98327.53;;;28.84;28.87
14902;BME280;7542;49.078;9.194;2023-04-28T01:47:56;98334.53;;;28.85;29.09
14902;BME280;7542;49.078;9.194;2023-04-28T01:48:59;98332.16;;;28.84;29.06
14902;BME280;7542;49.078;9.194;2023-04-28T01:50:01;98331.03;;;28.85;28.70
14902;BME280;7542;49.078;9.194;2023-04-28T01:51:03;98331.34;;;28.83;28.97
14902;BME280;7542;49.078;9.194;2023-04-28T01:52:05;98322.75;;;28.81;29.11
14902;BME280;7542;49.078;9.194;2023-04-28T01:53:07;98332.44;;;28.82;28.94
14902;BME280;7542;49.078;9.194;2023-04-28T01:54:12;98328.66;;;28.83;28.87
14902;BME280;7542;49.078;9.194;2023-04-28T01:55:16;98325.16;;;28.83;28.66
14902;BME280;7542;49.078;9.194;2023-04-28T01:56:51;98326.44;;;28.85;28.68
14902;BME280;7542;49.078;9.194;2023-04-28T01:57:59;98329.94;;;28.86;28.62
14902;BME280;7542;49.078;9.194;2023-04-28T01:59:01;98327.03;;;28.82;29.19
14902;BME280;7542;49.078;9.194;2023-04-28T02:00:03;98323.03;;;28.80;28.75
14902;BME280;7542;49.078;9.194;2023-04-28T02:01:08;98317.66;;;28.80;28.89
14902;BME280;7542;49.078;9.194;2023-04-28T02:02:10;98319.25;;;28.81;28.92
14902;BME280;7542;49.078;9.194;2023-04-28T02:03:12;98320.34;;;28.80;28.92
14902;BME280;7542;49.078;9.194;2023-04-28T02:04:14;98319.03;;;28.77;28.96
14902;BME280;7542;49.078;9.194;2023-04-28T02:05:16;98326.84;;;28.79;28.94
14902;BME280;7542;49.078;9.194;2023-04-28T02:06:18;98325.25;;;28.78;29.15
14902;BME280;7542;49.078;9.194;2023-04-28T02:07:20;98322.00;;;28.76;29.22
14902;BME280;7542;49.078;9.194;2023-04-28T02:08:22;98323.91;;;28.75;28.79
14902;BME280;7542;49.078;9.194;2023-04-28T02:09:24;98319.03;;;28.77;28.88
14902;BME280;7542;49.078;9.194;2023-04-28T02:10:27;98322.81;;;28.76;29.17
14902;BME280;7542;49.078;9.194;2023-04-28T02:11:30;98319.63;;;28.74;28.73
14902;BME280;7542;49.078;9.194;2023-04-28T02:12:34;98325.50;;;28.76;29.08
14902;BME280;7542;49.078;9.194;2023-04-28T02:13:36;98324.22;;;28.74;28.80
14902;BME280;7542;49.078;9.194;2023-04-28T02:14:39;98328.22;;;28.76;28.74
14902;BME280;7542;49.078;9.194;2023-04-28T02:15:42;98324.22;;;28.74;28.79
14902;BME280;7542;49.078;9.194;2023-04-28T02:16:44;98320.72;;;28.73;29.00
14902;BME280;7542;49.078;9.194;2023-04-28T02:17:46;98316.41;;;28.72;29.16
14902;BME280;7542;49.078;9.194;2023-04-28T02:18:48;98319.91;;;28.73;28.96
14902;BME280;7542;49.078;9.194;2023-04-28T02:19:54;98328.00;;;28.73;28.83
14902;BME280;7542;49.078;9.194;2023-04-28T02:21:11;98319.84;;;28.78;28.70
14902;BME280;7542;49.078;9.194;2023-04-28T02:22:14;98318.31;;;28.72;29.04
14902;BME280;7542;49.078;9.194;2023-04-28T02:23:18;98319.72;;;28.69;29.04
14902;BME280;7542;49.078;9.194;2023-04-28T02:24:19;98319.72;;;28.69;28.89
14902;BME280;7542;49.078;9.194;2023-04-28T02:25:22;98314.13;;;28.66;29.17
14902;BME280;7542;49.078;9.194;2023-04-28T02:26:24;98318.13;;;28.68;29.14
14902;BME280;7542;49.078;9.194;2023-04-28T02:27:26;98311.91;;;28.68;28.91
14902;BME280;7542;49.078;9.194;2023-04-28T02:28:29;98320.81;;;28.68;28.96
14902;BME280;7542;49.078;9.194;2023-04-28T02:29:31;98318.19;;;28.63;28.99
14902;BME280;7542;49.078;9.194;2023-04-28T02:30:33;98315.19;;;28.65;28.98
14902;BME280;7542;49.078;9.194;2023-04-28T02:31:36;98312.47;;;28.65;28.89
14902;BME280;7542;49.078;9.194;2023-04-28T02:32:39;98311.19;;;28.62;29.21
14902;BME280;7542;49.078;9.194;2023-04-28T02:33:41;98304.19;;;28.61;28.68
14902;BME280;7542;49.078;9.194;2023-04-28T02:34:43;98305.78;;;28.62;29.03
14902;BME280;7542;49.078;9.194;2023-04-28T02:35:45;98304.47;;;28.59;29.19
14902;BME280;7542;49.078;9.194;2023-04-28T02:36:47;98303.69;;;28.59;29.13
14902;BME280;7542;49.078;9.194;2023-04-28T02:37:51;98308.28;;;28.58;29.29
14902;BME280;7542;49.078;9.194;2023-04-28T02:38:53;98303.97;;;28.57;28.91
14902;BME280;7542;49.078;9.194;2023-04-28T02:39:56;98307.47;;;28.58;29.02
14902;BME280;7542;49.078;9.194;2023-04-28T02:41:06;98305.78;;;28.62;28.95
14902;BME280;7542;49.078;9.194;2023-04-28T02:42:10;98307.19;;;28.59;29.31
14902;BME280;7542;49.078;9.194;2023-04-28T02:43:12;98305.88;;;28.57;28.98
14902;BME280;7542;49.078;9.194;2023-04-28T02:44:14;98312.38;;;28.56;28.96
14902;BME280;7542;49.078;9.194;2023-04-28T02:45:17;98310.78;;;28.55;28.83
14902;BME280;7542;49.078;9.194;2023-04-28T02:46:19;98317.22;;;28.54;28.83
14902;BME280;7542;49.078;9.194;2023-04-28T02:47:21;98310.25;;;28.53;28.92
14902;BME280;7542;49.078;9.194;2023-04-28T02:48:24;98314.28;;;28.55;29.02
14902;BME280;7542;49.078;9.194;2023-04-28T02:49:26;98324.25;;;28.55;28.94
14902;BME280;7542;49.078;9.194;2023-04-28T02:50:28;98330.22;;;28.52;28.95
14902;BME280;7542;49.078;9.194;2023-04-28T02:51:30;98329.41;;;28.51;29.12
14902;BME280;7542;49.078;9.194;2023-04-28T02:52:32;98326.22;;;28.49;29.09
14902;BME280;7542;49.078;9.194;2023-04-28T02:53:34;98323.53;;;28.49;28.91
14902;BME280;7542;49.078;9.194;2023-04-28T02:54:36;98314.34;;;28.50;29.03
14902;BME280;7542;49.078;9.194;2023-04-28T02:55:38;98317.84;;;28.51;29.02
14902;BME280;7542;49.078;9.194;2023-04-28T02:56:41;98313.84;;;28.48;29.02
14902;BME280;7542;49.078;9.194;2023-04-28T02:57:43;98302.25;;;28.48;29.21
14902;BME280;7542;49.078;9.194;2023-04-28T02:58:45;98304.94;;;28.48;28.87
14902;BME280;7542;49.078;9.194;2023-04-28T02:59:48;98300.13;;;28.45;29.27
14902;BME280;7542;49.078;9.194;2023-04-28T03:00:51;98305.22;;;28.46;29.22
14902;BME280;7542;49.078;9.194;2023-04-28T03:01:53;98304.13;;;28.47;29.12
14902;BME280;7542;49.078;9.194;2023-04-28T03:02:55;98295.25;;;28.47;29.06
14902;BME280;7542;49.078;9.194;2023-04-28T03:03:59;98301.75;;;28.46;28.93
14902;BME280;7542;49.078;9.194;2023-04-28T03:05:02;98301.75;;;28.46;29.02
14902;BME280;7542;49.078;9.194;2023-04-28T03:06:04;98305.53;;;28.45;28.97
14902;BME280;7542;49.078;9.194;2023-04-28T03:07:07;98309.28;;;28.44;29.20
14902;BME280;7542;49.078;9.194;2023-04-28T03:08:09;98309.03;;;28.45;29.16
14902;BME280;7542;49.078;9.194;2023-04-28T03:09:11;98306.91;;;28.42;29.10
14902;BME280;7542;49.078;9.194;2023-04-28T03:10:13;98307.19;;;28.41;29.15
14902;BME280;7542;49.078;9.194;2023-04-28T03:11:15;98317.69;;;28.42;28.95
14902;BME280;7542;49.078;9.194;2023-04-28T03:12:18;98308.00;;;28.41;29.20
14902;BME280;7542;49.078;9.194;2023-04-28T03:13:21;98307.19;;;28.41;29.38
14902;BME280;7542;49.078;9.194;2023-04-28T03:14:23;98314.19;;;28.42;29.06
14902;BME280;7542;49.078;9.194;2023-04-28T03:15:25;98311.00;;;28.40;28.98
14902;BME280;7542;49.078;9.194;2023-04-28T03:16:27;98313.69;;;28.40;29.15
14902;BME280;7542;49.078;9.194;2023-04-28T03:17:29;98312.28;;;28.42;29.18
14902;BME280;7542;49.078;9.194;2023-04-28T03:18:32;98307.50;;;28.39;29.28
14902;BME280;7542;49.078;9.194;2023-04-28T03:19:34;98304.00;;;28.39;29.02
14902;BME280;7542;49.078;9.194;2023-04-28T03:20:37;98304.28;;;28.37;29.10
14902;BME280;7542;49.078;9.194;2023-04-28T03:21:39;98297.00;;;28.38;29.31
14902;BME280;7542;49.078;9.194;2023-04-28T03:22:41;98299.69;;;28.38;29.28
14902;BME280;7542;49.078;9.194;2023-04-28T03:23:45;98302.09;;;28.39;29.11
14902;BME280;7542;49.078;9.194;2023-04-28T03:24:48;98302.09;;;28.39;28.93
14902;BME280;7542;49.078;9.194;2023-04-28T03:25:50;98293.78;;;28.36;29.27
14902;BME280;7542;49.078;9.194;2023-04-28T03:26:52;98291.59;;;28.38;28.89
14902;BME280;7542;49.078;9.194;2023-04-28T03:27:54;98291.31;;;28.39;29.36
14902;BME280;7542;49.078;9.194;2023-04-28T03:28:56;98290.81;;;28.37;29.20
14902;BME280;7542;49.078;9.194;2023-04-28T03:29:58;98287.31;;;28.37;29.40
14902;BME280;7542;49.078;9.194;2023-04-28T03:31:00;98273.53;;;28.38;29.20
14902;BME280;7542;49.078;9.194;2023-04-28T03:32:03;98280.03;;;28.37;29.34
14902;BME280;7542;49.078;9.194;2023-04-28T03:33:06;98267.63;;;28.36;29.21
14902;BME280;7542;49.078;9.194;2023-04-28T03:34:08;98266.25;;;28.39;29.15
14902;BME280;7542;49.078;9.194;2023-04-28T03:35:11;98263.03;;;28.37;29.11
14902;BME280;7542;49.078;9.194;2023-04-28T03:36:14;98257.66;;;28.37;29.29
14902;BME280;7542;49.078;9.194;2023-04-28T03:37:16;98249.84;;;28.35;29.40
14902;BME280;7542;49.078;9.194;2023-04-28T03:38:19;98251.44;;;28.36;29.28
14902;BME280;7542;49.078;9.194;2023-04-28T03:39:21;98242.56;;;28.36;29.23
14902;BME280;7542;49.078;9.194;2023-04-28T03:40:23;98237.16;;;28.36;29.32
14902;BME280;7542;49.078;9.194;2023-04-28T03:41:25;98239.06;;;28.35;29.33
14902;BME280;7542;49.078;9.194;2023-04-28T03:42:27;98230.97;;;28.35;29.26
14902;BME280;7542;49.078;9.194;2023-04-28T03:43:29;98234.78;;;28.34;28.99
14902;BME280;7542;49.078;9.194;2023-04-28T03:44:31;98233.16;;;28.33;29.48
14902;BME280;7542;49.078;9.194;2023-04-28T03:45:33;98246.66;;;28.33;29.41
14902;BME280;7542;49.078;9.194;2023-04-28T03:46:36;98242.31;;;28.32;29.23
14902;BME280;7542;49.078;9.194;2023-04-28T03:47:38;98237.47;;;28.34;29.18
14902;BME280;7542;49.078;9.194;2023-04-28T03:48:41;98238.56;;;28.33;29.27
14902;BME280;7542;49.078;9.194;2023-04-28T03:49:43;98236.94;;;28.32;29.41
14902;BME280;7542;49.078;9.194;2023-04-28T03:50:45;98242.31;;;28.32;29.54
14902;BME280;7542;49.078;9.194;2023-04-28T03:51:47;98240.72;;;28.31;29.40
14902;BME280;7542;49.078;9.194;2023-04-28T03:52:51;98250.72;;;28.30;29.20
14902;BME280;7542;49.078;9.194;2023-04-28T03:53:54;98239.13;;;28.30;29.54
14902;BME280;7542;49.078;9.194;2023-04-28T03:54:56;98244.53;;;28.30;29.22
14902;BME280;7542;49.078;9.194;2023-04-28T03:55:58;98234.03;;;28.28;29.20
14902;BME280;7542;49.078;9.194;2023-04-28T03:57:00;98238.34;;;28.29;29.52
14902;BME280;7542;49.078;9.194;2023-04-28T03:58:02;98243.72;;;28.29;29.08
14902;BME280;7542;49.078;9.194;2023-04-28T03:59:05;98243.22;;;28.27;29.36
14902;BME280;7542;49.078;9.194;2023-04-28T04:00:09;98241.59;;;28.26;29.48
14902;BME280;7542;49.078;9.194;2023-04-28T04:01:11;98244.28;;;28.26;29.21
14902;BME280;7542;49.078;9.194;2023-04-28T04:02:13;98244.03;;;28.28;29.36
14902;BME280;7542;49.078;9.194;2023-04-28T04:03:16;98239.69;;;28.27;29.30
14902;BME280;7542;49.078;9.194;2023-04-28T04:04:19;98240.53;;;28.27;29.43
14902;BME280;7542;49.078;9.194;2023-04-28T04:05:22;98244.28;;;28.26;29.25
14902;BME280;7542;49.078;9.194;2023-04-28T04:06:24;98235.41;;;28.26;29.24
14902;BME280;7542;49.078;9.194;2023-04-28T04:07:26;98238.38;;;28.24;29.29
14902;BME280;7542;49.078;9.194;2023-04-28T04:08:29;98247.28;;;28.25;29.32
14902;BME280;7542;49.078;9.194;2023-04-28T04:09:31;98242.38;;;28.27;29.36
14902;BME280;7542;49.078;9.194;2023-04-28T04:10:33;98244.81;;;28.28;29.38
14902;BME280;7542;49.078;9.194;2023-04-28T04:11:35;98245.09;;;28.27;29.35
14902;BME280;7542;49.078;9.194;2023-04-28T04:12:39;98246.19;;;28.26;29.27
14902;BME280;7542;49.078;9.194;2023-04-28T04:13:42;98242.13;;;28.28;29.42
14902;BME280;7542;49.078;9.194;2023-04-28T04:14:46;98245.91;;;28.27;29.42
14902;BME280;7542;49.078;9.194;2023-04-28T04:15:48;98243.22;;;28.27;29.46
14902;BME280;7542;49.078;9.194;2023-04-28T04:16:51;98244.53;;;28.30;29.35
14902;BME280;7542;49.078;9.194;2023-04-28T04:17:53;98250.72;;;28.30;29.25
14902;BME280;7542;49.078;9.194;2023-04-28T04:18:56;98250.72;;;28.30;29.30
14902;BME280;7542;49.078;9.194;2023-04-28T04:19:59;98246.91;;;28.32;29.25
14902;BME280;7542;49.078;9.194;2023-04-28T04:21:05;98247.16;;;28.35;29.31
14902;BME280;7542;49.078;9.194;2023-04-28T04:22:09;98255.53;;;28.34;29.38
14902;BME280;7542;49.078;9.194;2023-04-28T04:23:11;98261.75;;;28.34;29.46
14902;BME280;7542;49.078;9.194;2023-04-28T04:24:14;98254.16;;;28.36;29.28
14902;BME280;7542;49.078;9.194;2023-04-28T04:25:16;98255.25;;;28.35;29.44
14902;BME280;7542;49.078;9.194;2023-04-28T04:26:18;98251.44;;;28.36;29.29
14902;BME280;7542;49.078;9.194;2023-04-28T04:27:20;98249.56;;;28.37;29.63
14902;BME280;7542;49.078;9.194;2023-04-28T04:28:21;98244.97;;;28.37;29.15
14902;BME280;7542;49.078;9.194;2023-04-28T04:29:24;98253.06;;;28.37;29.18
14902;BME280;7542;49.078;9.194;2023-04-28T04:30:26;98255.44;;;28.39;29.39
14902;BME280;7542;49.078;9.194;2023-04-28T04:31:28;98254.34;;;28.40;29.46
14902;BME280;7542;49.078;9.194;2023-04-28T04:32:30;98249.56;;;28.37;29.59
14902;BME280;7542;49.078;9.194;2023-04-28T04:33:33;98246.84;;;28.37;29.50
14902;BME280;7542;49.078;9.194;2023-04-28T04:34:36;98257.66;;;28.37;29.35
14902;BME280;7542;49.078;9.194;2023-04-28T04:35:38;98253.56;;;28.39;29.21
14902;BME280;7542;49.078;9.194;2023-04-28T04:36:40;98260.25;;;28.42;29.31
14902;BME280;7542;49.078;9.194;2023-04-28T04:37:42;98257.84;;;28.40;29.32
14902;BME280;7542;49.078;9.194;2023-04-28T04:38:45;98248.16;;;28.39;29.38
14902;BME280;7542;49.078;9.194;2023-04-28T04:39:47;98260.53;;;28.40;29.18
14902;BME280;7542;49.078;9.194;2023-04-28T04:40:49;98255.16;;;28.40;29.36
14902;BME280;7542;49.078;9.194;2023-04-28T04:41:52;98253.25;;;28.41;29.54
14902;BME280;7542;49.078;9.194;2023-04-28T04:42:55;98258.94;;;28.39;29.37
14902;BME280;7542;49.078;9.194;2023-04-28T04:43:57;98254.34;;;28.40;29.46
14902;BME280;7542;49.078;9.194;2023-04-28T04:44:58;98256.75;;;28.41;29.49
14902;BME280;7542;49.078;9.194;2023-04-28T04:46:01;98256.25;;;28.39;29.37
14902;BME280;7542;49.078;9.194;2023-04-28T04:47:04;98255.16;;;28.40;29.27
14902;BME280;7542;49.078;9.194;2023-04-28T04:48:08;98254.34;;;28.40;29.34
14902;BME280;7542;49.078;9.194;2023-04-28T04:49:10;98255.16;;;28.40;29.19
14902;BME280;7542;49.078;9.194;2023-04-28T04:50:12;98248.97;;;28.40;29.38
14902;BME280;7542;49.078;9.194;2023-04-28T04:51:14;98255.16;;;28.40;29.28
14902;BME280;7542;49.078;9.194;2023-04-28T04:52:17;98249.75;;;28.40;29.48
14902;BME280;7542;49.078;9.194;2023-04-28T04:53:20;98250.56;;;28.41;29.46
14902;BME280;7542;49.078;9.194;2023-04-28T04:54:22;98248.66;;;28.41;29.36
14902;BME280;7542;49.078;9.194;2023-04-28T04:55:24;98243.88;;;28.38;29.48
14902;BME280;7542;49.078;9.194;2023-04-28T04:56:26;98244.97;;;28.37;29.25
14902;BME280;7542;49.078;9.194;2023-04-28T04:57:29;98240.88;;;28.40;29.18
14902;BME280;7542;49.078;9.194;2023-04-28T04:58:31;98243.88;;;28.38;29.26
14902;BME280;7542;49.078;9.194;2023-04-28T04:59:33;98240.88;;;28.40;29.52
14902;BME280;7542;49.078;9.194;2023-04-28T05:00:36;98244.66;;;28.39;29.35
14902;BME280;7542;49.078;9.194;2023-04-28T05:01:38;98243.88;;;28.38;29.36
14902;BME280;7542;49.078;9.194;2023-04-28T05:02:41;98241.16;;;28.38;29.34
14902;BME280;7542;49.078;9.194;2023-04-28T05:03:43;98251.66;;;28.40;29.51
14902;BME280;7542;49.078;9.194;2023-04-28T05:04:45;98243.88;;;28.38;29.15
14902;BME280;7542;49.078;9.194;2023-04-28T05:05:47;98245.75;;;28.38;29.56
14902;BME280;7542;49.078;9.194;2023-04-28T05:06:49;98235.28;;;28.36;29.35
14902;BME280;7542;49.078;9.194;2023-04-28T05:07:53;98237.97;;;28.36;29.36
14902;BME280;7542;49.078;9.194;2023-04-28T05:08:55;98231.28;;;28.34;29.30
14902;BME280;7542;49.078;9.194;2023-04-28T05:09:58;98233.16;;;28.33;29.38
14902;BME280;7542;49.078;9.194;2023-04-28T05:11:01;98227.78;;;28.33;29.27
14902;BME280;7542;49.078;9.194;2023-04-28T05:12:05;98228.56;;;28.34;29.27
14902;BME280;7542;49.078;9.194;2023-04-28T05:13:07;98226.16;;;28.32;29.42
14902;BME280;7542;49.078;9.194;2023-04-28T05:14:10;98227.78;;;28.33;28.87
14902;BME280;7542;49.078;9.194;2023-04-28T05:15:12;98226.75;;;28.29;29.71
14902;BME280;7542;49.078;9.194;2023-04-28T05:16:14;98228.34;;;28.30;29.51
14902;BME280;7542;49.078;9.194;2023-04-28T05:17:17;98233.44;;;28.32;29.27
14902;BME280;7542;49.078;9.194;2023-04-28T05:18:19;98235.63;;;28.29;29.44
14902;BME280;7542;49.078;9.194;2023-04-28T05:19:22;98233.75;;;28.30;29.17
14902;BME280;7542;49.078;9.194;2023-04-28T05:20:23;98227.03;;;28.27;29.29
14902;BME280;7542;49.078;9.194;2023-04-28T05:21:25;98228.66;;;28.28;29.41
14902;BME280;7542;49.078;9.194;2023-04-28T05:22:34;98226.16;;;28.32;29.55
14902;BME280;7542;49.078;9.194;2023-04-28T05:23:36;98222.44;;;28.28;29.53
14902;BME280;7542;49.078;9.194;2023-04-28T05:24:39;98217.06;;;28.28;29.36
14902;BME280;7542;49.078;9.194;2023-04-28T05:25:41;98218.13;;;28.27;29.50
14902;BME280;7542;49.078;9.194;2023-04-28T05:26:43;98212.72;;;28.27;29.48
14902;BME280;7542;49.078;9.194;2023-04-28T05:27:45;98218.41;;;28.25;29.56
14902;BME280;7542;49.078;9.194;2023-04-28T05:28:47;98222.22;;;28.24;29.88
14902;BME280;7542;49.078;9.194;2023-04-28T05:29:50;98217.63;;;28.25;29.67
14902;BME280;7542;49.078;9.194;2023-04-28T05:30:51;98224.91;;;28.24;29.67
14902;BME280;7542;49.078;9.194;2023-04-28T05:31:53;98219.22;;;28.26;29.47
14902;BME280;7542;49.078;9.194;2023-04-28T05:32:55;98223.31;;;28.23;29.56
14902;BME280;7542;49.078;9.194;2023-04-28T05:33:57;98218.47;;;28.20;29.57
14902;BME280;7542;49.078;9.194;2023-04-28T05:34:59;98221.19;;;28.20;29.74
14902;BME280;7542;49.078;9.194;2023-04-28T05:36:01;98220.88;;;28.22;29.54
14902;BME280;7542;49.078;9.194;2023-04-28T05:37:04;98230.88;;;28.21;29.45